Aviation Digital Data Service (ADDS)

Output produced by METARs form (1111 UTC 18 January 2022)
found at http://www.aviationweather.gov/metar/data/
 
Forecast for: RJGG (NAGOYA/CHUBU , JP)
Text: TAF RJGG 180505Z 1806/1912 32026KT 9999 FEW025 SCT050
Forecast period: 0600 to 1500 UTC 18 January 2022
Forecast type: FROM: standard forecast or significant change
Winds: from the NW (320 degrees) at 30 MPH (26 knots; 13.4 m/s)
Visibility: 6 or more miles (10+ km)
Ceiling: at least 12,000 feet AGL
Clouds: few clouds at 2500 feet AGL
scattered clouds at 5000 feet AGL
Weather: no significant weather forecast for this period
Text: BECMG 1815/1817 32014KT
Forecast period: 1500 UTC 18 January 2022 to 1200 UTC 19 January 2022
Forecast type: BECOMING: Conditions expected to become as follows by 1700 UTC 18 January 2022
Winds: from the NW (320 degrees) at 16 MPH (14 knots; 7.2 m/s)
Visibility: 6 or more miles (10+ km)
Ceiling: at least 12,000 feet AGL
Clouds: few clouds at 2500 feet AGL
scattered clouds at 5000 feet AGL
Weather: no significant weather forecast for this period